Time;durP1;ratioP1;P1;durP2;ratioP2;P2;SDS_P1;SDS_P2;PMS_P1;PMS_P2;Temp;Humidity;BMP_temperature;BMP_pressure;BME280_temperature;BME280_humidity;BME280_pressure;Samples;Min_cycle;Max_cycle;Signal;HPM_P1;HPM_P2
2022/04/24 00:00:31;;;;;;;9.10;7.32;;;;;;;8.82;57.13;100069.56;7394707;19;20019;-65
2022/04/24 00:02:59;;;;;;;11.35;7.80;;;;;;;8.77;57.10;100070.53;7395069;19;20039;-65
2022/04/24 00:05:30;;;;;;;10.20;7.30;;;;;;;8.73;57.18;100074.13;7397771;19;20026;-65
2022/04/24 00:07:58;;;;;;;9.90;7.10;;;;;;;8.68;57.38;100065.56;7397063;19;20022;-66
2022/04/24 00:10:27;;;;;;;10.50;6.65;;;;;;;8.64;57.48;100064.75;7396873;19;20035;-65
2022/04/24 00:12:55;;;;;;;8.50;6.80;;;;;;;8.57;57.73;100051.88;7394550;19;20010;-65
2022/04/24 00:15:23;;;;;;;8.32;6.72;;;;;;;8.54;57.82;100057.16;7396389;19;20541;-65
2022/04/24 00:17:51;;;;;;;7.50;5.80;;;;;;;8.48;58.19;100052.97;7394976;19;20035;-65
2022/04/24 00:20:19;;;;;;;10.20;6.78;;;;;;;8.42;58.05;100048.69;7396540;19;20018;-66
2022/04/24 00:22:50;;;;;;;10.32;6.97;;;;;;;8.36;58.62;100046.22;7394636;19;20500;-66
2022/04/24 00:25:18;;;;;;;8.85;6.32;;;;;;;8.31;58.31;100043.75;7396575;19;20014;-66
2022/04/24 00:27:46;;;;;;;10.02;6.20;;;;;;;8.27;58.51;100046.44;7394692;19;20022;-66
2022/04/24 00:30:14;;;;;;;7.38;6.45;;;;;;;8.23;58.91;100043.03;7396209;19;20018;-66
2022/04/24 00:32:43;;;;;;;8.52;6.63;;;;;;;8.17;58.82;100037.97;7394046;19;20435;-66
2022/04/24 00:35:11;;;;;;;11.35;6.65;;;;;;;8.12;59.36;100039.81;7396101;19;20022;-66
2022/04/24 00:37:39;;;;;;;8.63;5.25;;;;;;;8.06;59.29;100035.59;7396068;19;20018;-66
2022/04/24 00:40:12;;;;;;;10.60;6.57;;;;;;;8.01;60.12;100039.19;7394731;19;20022;-66
2022/04/24 00:42:40;;;;;;;8.73;6.28;;;;;;;7.97;59.68;100036.69;7393514;19;20022;-65
2022/04/24 00:45:09;;;;;;;9.25;6.45;;;;;;;7.93;59.83;100039.38;7395755;19;20035;-65
2022/04/24 00:47:38;;;;;;;7.60;6.13;;;;;;;7.87;59.86;100029.91;7395816;19;20031;-65
2022/04/24 00:50:08;;;;;;;8.13;6.90;;;;;;;7.81;60.05;100028.31;7393997;19;20035;-65
2022/04/24 00:52:37;;;;;;;7.47;5.68;;;;;;;7.78;60.08;100024.91;7393849;19;20014;-65
2022/04/24 00:55:06;;;;;;;9.50;6.15;;;;;;;7.72;60.07;100023.28;7395523;19;20038;-65
2022/04/24 00:57:37;;;;;;;8.57;6.25;;;;;;;7.69;60.51;100023.34;7393763;19;20019;-65
2022/04/24 01:00:07;;;;;;;9.43;6.32;;;;;;;7.64;60.44;100017.38;7395598;19;20015;-67
2022/04/24 01:02:35;;;;;;;8.18;6.47;;;;;;;7.60;60.64;100015.72;7393681;19;20036;-66
2022/04/24 01:05:04;;;;;;;10.10;7.15;;;;;;;7.56;60.94;100017.53;7393525;19;20023;-66
2022/04/24 01:07:32;;;;;;;12.20;7.55;;;;;;;7.53;60.99;100014.13;7395155;19;20023;-66
2022/04/24 01:10:00;;;;;;;10.02;7.90;;;;;;;7.50;61.26;100015.03;7395089;19;20018;-66
2022/04/24 01:12:29;;;;;;;12.75;6.65;;;;;;;7.45;61.27;100012.50;7393986;19;20019;-66
2022/04/24 01:14:59;;;;;;;10.70;6.72;;;;;;;7.41;61.39;100010.88;7394679;19;20490;-66
2022/04/24 01:17:29;;;;;;;7.28;6.32;;;;;;;7.39;61.60;100006.56;7393187;19;20026;-66
2022/04/24 01:19:57;;;;;;;7.28;5.97;;;;;;;7.35;61.60;100008.38;7394822;19;20044;-66
2022/04/24 01:22:28;;;;;;;8.93;6.93;;;;;;;7.31;61.74;100004.13;7392382;19;20396;-66
2022/04/24 01:24:56;;;;;;;9.00;6.10;;;;;;;7.28;61.89;100005.03;7395022;19;20031;-66
2022/04/24 01:27:24;;;;;;;11.43;6.75;;;;;;;7.25;61.97;100001.63;7394284;19;20366;-66
2022/04/24 01:29:52;;;;;;;10.90;7.05;;;;;;;7.21;62.14;100003.44;7392689;19;20032;-66
2022/04/24 01:32:20;;;;;;;9.48;6.53;;;;;;;7.17;62.22;100009.63;7392570;19;20035;-66
2022/04/24 01:34:48;;;;;;;10.10;6.55;;;;;;;7.13;62.40;100002.75;7394395;19;20018;-66
2022/04/24 01:37:16;;;;;;;9.57;5.95;;;;;;;7.09;62.44;100009.78;7394037;19;20402;-66
2022/04/24 01:39:47;;;;;;;9.25;6.53;;;;;;;7.08;62.64;100012.41;7394293;19;20018;-66
2022/04/24 01:42:15;;;;;;;10.45;6.68;;;;;;;7.05;62.52;100002.03;7393470;19;20367;-66
2022/04/24 01:44:43;;;;;;;9.82;7.63;;;;;;;7.01;62.73;100004.69;7392182;19;20018;-66
2022/04/24 01:47:11;;;;;;;12.73;9.65;;;;;;;6.98;62.76;100007.34;7392214;19;20022;-66
2022/04/24 01:49:40;;;;;;;15.85;9.98;;;;;;;6.96;62.93;100008.28;7392114;19;20032;-66
2022/04/24 01:52:09;;;;;;;16.23;10.18;;;;;;;6.91;63.25;100003.13;7394554;19;20387;-66
2022/04/24 01:54:37;;;;;;;11.63;9.23;;;;;;;6.85;63.27;99990.22;7399079;19;20014;-66
2022/04/24 01:57:08;;;;;;;11.77;9.00;;;;;;;6.82;63.53;99995.47;7399509;19;20026;-66
2022/04/24 01:59:36;;;;;;;15.82;8.52;;;;;;;6.79;63.46;99991.19;7399279;19;20019;-66
2022/04/24 02:02:05;;;;;;;9.55;8.25;;;;;;;6.77;63.77;99997.31;7399906;19;20015;-66
2022/04/24 02:04:33;;;;;;;10.80;8.07;;;;;;;6.73;63.68;99996.50;7398410;19;20022;-66
2022/04/24 02:07:01;;;;;;;10.45;7.95;;;;;;;6.69;63.83;99992.25;7398403;19;20011;-66
2022/04/24 02:09:29;;;;;;;9.02;7.32;;;;;;;6.66;63.92;99990.56;7400868;19;20019;-66
2022/04/24 02:11:57;;;;;;;9.57;7.22;;;;;;;6.63;64.29;99989.75;7398136;19;20026;-66
2022/04/24 02:14:28;;;;;;;9.93;6.90;;;;;;;6.60;64.40;99997.63;7397949;19;20023;-66
2022/04/24 02:16:57;;;;;;;9.25;6.78;;;;;;;6.55;64.64;99987.28;7401107;19;20026;-66
2022/04/24 02:19:25;;;;;;;7.43;6.45;;;;;;;6.51;64.46;99985.63;7398039;19;20015;-66
2022/04/24 02:21:53;;;;;;;9.05;7.55;;;;;;;6.49;64.70;99987.38;7397767;19;20022;-66
2022/04/24 02:24:21;;;;;;;9.00;6.50;;;;;;;6.45;64.87;99991.78;7400465;19;20422;-66
2022/04/24 02:26:49;;;;;;;8.05;6.20;;;;;;;6.42;64.97;99985.75;7400323;19;20035;-66
2022/04/24 02:29:18;;;;;;;9.20;7.10;;;;;;;6.39;64.95;99988.41;7397769;19;20022;-66
2022/04/24 02:31:50;;;;;;;8.55;6.40;;;;;;;6.32;65.21;99974.66;7399401;19;20022;-66
2022/04/24 02:34:18;;;;;;;8.32;6.82;;;;;;;6.32;65.45;99980.69;7400272;19;20022;-66
2022/04/24 02:36:46;;;;;;;8.43;7.35;;;;;;;6.29;65.33;99980.78;7400121;19;20022;-66
2022/04/24 02:39:14;;;;;;;9.13;7.40;;;;;;;6.25;65.58;99973.03;7399880;19;20035;-66
2022/04/24 02:41:42;;;;;;;11.32;7.57;;;;;;;6.21;65.67;99972.19;7398806;19;20489;-66
2022/04/24 02:44:10;;;;;;;10.13;7.30;;;;;;;6.18;65.74;99962.69;7397031;19;20419;-66
2022/04/24 02:46:39;;;;;;;9.43;6.97;;;;;;;6.14;66.04;99965.38;7397293;19;20018;-66
2022/04/24 02:49:09;;;;;;;13.57;7.20;;;;;;;6.12;66.00;99964.56;7399671;19;20031;-66
2022/04/24 02:51:37;;;;;;;16.23;7.40;;;;;;;6.09;66.23;99967.19;7397552;19;20039;-66
2022/04/24 02:54:06;;;;;;;14.18;6.82;;;;;;;6.03;66.31;99963.78;7399091;19;20375;-65
2022/04/24 02:56:34;;;;;;;10.73;7.38;;;;;;;6.00;66.44;99953.44;7399440;19;20023;-66
2022/04/24 02:59:02;;;;;;;9.02;6.95;;;;;;;5.97;66.72;99950.00;7399242;19;20035;-66
2022/04/24 03:01:31;;;;;;;8.52;7.28;;;;;;;5.94;66.59;99955.22;7398719;19;20025;-66
2022/04/24 03:03:59;;;;;;;13.18;6.78;;;;;;;5.90;66.89;99956.16;7395424;19;20019;-66
2022/04/24 03:06:30;;;;;;;11.07;7.22;;;;;;;5.85;66.85;99943.19;7396821;19;20018;-66
2022/04/24 03:08:58;;;;;;;10.95;7.10;;;;;;;5.83;67.18;99951.03;7399210;19;20023;-66
2022/04/24 03:11:26;;;;;;;8.07;6.40;;;;;;;5.80;67.25;99952.81;7398538;19;20031;-66
2022/04/24 03:13:54;;;;;;;10.48;6.68;;;;;;;5.77;67.25;99950.28;7397135;19;20010;-66
2022/04/24 03:16:22;;;;;;;9.32;6.20;;;;;;;5.74;67.40;99942.50;7396608;19;20031;-66
2022/04/24 03:18:57;;;;;;;10.77;6.75;;;;;;;5.71;67.67;99952.09;7396445;19;20035;-66
2022/04/24 03:21:25;;;;;;;8.35;6.88;;;;;;;5.69;67.61;99946.03;7398159;19;20138;-66
2022/04/24 03:23:56;;;;;;;12.10;6.60;;;;;;;5.66;67.54;99951.31;7396924;19;20018;-66
2022/04/24 03:26:24;;;;;;;11.85;6.63;;;;;;;5.63;67.74;99948.72;7398858;19;20019;-66
2022/04/24 03:28:52;;;;;;;9.65;7.53;;;;;;;5.61;67.85;99950.50;7396140;19;20023;-66
2022/04/24 03:31:20;;;;;;;8.98;7.03;;;;;;;5.59;67.88;99951.41;7395915;19;20014;-66
2022/04/24 03:33:48;;;;;;;10.50;7.72;;;;;;;5.56;67.81;99939.31;7398147;19;20022;-66
2022/04/24 03:36:16;;;;;;;10.90;6.78;;;;;;;5.54;68.04;99939.31;7395529;19;20374;-66
2022/04/24 03:38:44;;;;;;;8.20;6.63;;;;;;;5.52;68.18;99938.50;7397830;19;20032;-66
2022/04/24 03:41:15;;;;;;;8.65;6.68;;;;;;;5.52;68.31;99942.81;7397187;19;20484;-65
2022/04/24 03:43:44;;;;;;;10.73;6.63;;;;;;;5.48;68.44;99938.53;7396952;19;20021;-66
2022/04/24 03:46:13;;;;;;;10.90;7.20;;;;;;;5.46;68.50;99946.38;7397681;19;20046;-67
2022/04/24 03:48:41;;;;;;;9.75;6.57;;;;;;;5.44;68.54;99932.50;7395722;19;20035;-65
2022/04/24 03:51:10;;;;;;;8.18;6.60;;;;;;;5.42;68.64;99939.50;7395513;19;20043;-65
2022/04/24 03:53:38;;;;;;;10.95;7.32;;;;;;;5.39;68.63;99940.38;7397516;19;20035;-66
2022/04/24 03:56:06;;;;;;;8.32;6.93;;;;;;;5.38;68.81;99946.47;7395537;19;20023;-67
2022/04/24 03:58:37;;;;;;;9.13;6.93;;;;;;;5.37;68.68;99943.88;7397235;19;20018;-66
2022/04/24 04:01:05;;;;;;;10.52;6.85;;;;;;;5.34;69.15;99944.78;7395927;19;20018;-66
2022/04/24 04:03:33;;;;;;;9.95;6.72;;;;;;;5.31;68.96;99942.22;7396173;19;20022;-66
2022/04/24 04:06:01;;;;;;;9.15;6.75;;;;;;;5.29;69.22;99943.97;7397084;19;20014;-66
2022/04/24 04:08:30;;;;;;;9.13;6.88;;;;;;;5.28;69.30;99944.88;7397002;19;20014;-67
2022/04/24 04:10:59;;;;;;;10.23;7.18;;;;;;;5.25;69.35;99936.25;7396952;19;20064;-66
2022/04/24 04:13:27;;;;;;;9.40;6.93;;;;;;;5.23;69.27;99936.25;7394469;19;20014;-67
2022/04/24 04:15:58;;;;;;;13.85;7.60;;;;;;;5.21;69.60;99941.47;7397064;19;20019;-66
2022/04/24 04:18:26;;;;;;;9.85;6.68;;;;;;;5.21;69.53;99951.03;7395334;19;20027;-66
2022/04/24 04:20:54;;;;;;;10.35;7.53;;;;;;;5.15;69.65;99948.50;7396466;19;20022;-65
2022/04/24 04:23:23;;;;;;;14.73;7.25;;;;;;;5.20;69.84;99951.91;7393711;19;20529;-66
2022/04/24 04:25:51;;;;;;;10.52;7.20;;;;;;;5.17;69.86;99954.56;7395132;19;20019;-66
2022/04/24 04:28:19;;;;;;;8.00;7.20;;;;;;;5.18;70.03;99959.75;7396222;19;20035;-66
2022/04/24 04:30:47;;;;;;;11.10;7.78;;;;;;;5.19;70.09;99963.19;7394519;19;20018;-65
2022/04/24 04:33:18;;;;;;;12.60;8.25;;;;;;;5.20;70.02;99957.97;7394514;19;20035;-67
2022/04/24 04:35:46;;;;;;;10.73;7.35;;;;;;;5.21;70.16;99958.84;7394159;19;20014;-67
2022/04/24 04:38:14;;;;;;;12.23;8.32;;;;;;;5.21;70.27;99958.84;7395717;19;20018;-65
2022/04/24 04:40:43;;;;;;;11.13;8.48;;;;;;;5.21;70.34;99957.09;7394364;19;20031;-67
2022/04/24 04:43:11;;;;;;;12.23;7.63;;;;;;;5.22;70.42;99961.41;7394153;19;20015;-66
2022/04/24 04:45:39;;;;;;;8.48;7.57;;;;;;;5.23;70.25;99959.66;7395778;19;20014;-66
2022/04/24 04:48:07;;;;;;;11.60;7.18;;;;;;;5.25;70.29;99959.66;7394074;19;20011;-67
2022/04/24 04:50:38;;;;;;;8.95;7.63;;;;;;;5.26;70.43;99953.56;7393970;19;20014;-68
2022/04/24 04:53:06;;;;;;;11.95;7.95;;;;;;;5.27;70.60;99956.16;7393568;19;20509;-65
2022/04/24 04:55:34;;;;;;;9.80;7.97;;;;;;;5.30;70.75;99955.25;7395064;19;20436;-67
2022/04/24 04:58:09;;;;;;;11.82;7.43;;;;;;;5.30;70.60;99952.66;7395448;19;20015;-67
2022/04/24 05:00:38;;;;;;;10.45;7.65;;;;;;;5.33;70.78;99955.22;7394173;19;20018;-67
2022/04/24 05:03:06;;;;;;;10.07;7.85;;;;;;;5.30;70.77;99945.72;7393677;19;20072;-66
2022/04/24 05:05:34;;;;;;;9.30;7.30;;;;;;;5.38;70.70;99949.09;7395165;19;20015;-67
2022/04/24 05:08:27;;;;;;;12.15;7.60;;;;;;;5.42;70.86;99951.63;7395184;19;20010;-67
2022/04/24 05:10:55;;;;;;;11.27;7.85;;;;;;;5.43;70.97;99948.16;7395501;19;20015;-65
2022/04/24 05:13:36;;;;;;;11.77;7.80;;;;;;;5.46;70.81;99951.59;7392680;19;20019;-65
2022/04/24 05:16:05;;;;;;;10.55;7.93;;;;;;;5.50;70.90;99947.19;7394870;19;20050;-66
2022/04/24 05:18:33;;;;;;;11.43;7.97;;;;;;;5.53;70.94;99948.03;7394732;19;20025;-67
2022/04/24 05:21:02;;;;;;;11.18;8.43;;;;;;;5.57;70.89;99948.81;7394810;19;20018;-67
2022/04/24 05:23:32;;;;;;;10.98;7.85;;;;;;;5.60;70.78;99954.00;7392762;19;20018;-65
2022/04/24 05:26:00;;;;;;;66.38;37.90;;;;;;;5.63;70.82;99956.53;7395133;19;20039;-67
2022/04/24 05:28:29;;;;;;;12.52;9.25;;;;;;;5.66;70.91;99959.13;7401038;19;20027;-67
2022/04/24 05:30:57;;;;;;;10.00;8.45;;;;;;;5.70;70.96;99954.72;7402368;19;20018;-67
2022/04/24 05:33:25;;;;;;;10.13;8.00;;;;;;;5.74;71.00;99956.41;7399122;19;20019;-65
2022/04/24 05:35:53;;;;;;;13.30;8.60;;;;;;;5.79;70.99;99945.94;7399101;19;20026;-67
2022/04/24 05:38:21;;;;;;;11.48;7.78;;;;;;;5.84;70.83;99949.31;7401860;19;20019;-66
2022/04/24 05:40:52;;;;;;;12.60;9.52;;;;;;;5.90;71.11;99954.41;7399021;19;20026;-65
2022/04/24 05:43:20;;;;;;;12.02;8.52;;;;;;;5.92;70.79;99947.44;7399064;19;20022;-67
2022/04/24 05:45:48;;;;;;;12.30;8.30;;;;;;;5.97;70.69;99950.84;7401516;19;20019;-66
2022/04/24 05:48:18;;;;;;;13.65;8.57;;;;;;;6.02;70.86;99949.03;7401623;19;20039;-68
2022/04/24 05:50:46;;;;;;;13.35;8.90;;;;;;;6.09;70.43;99948.94;7398438;19;20018;-65
2022/04/24 05:53:14;;;;;;;14.10;8.48;;;;;;;6.15;70.50;99946.25;7398522;19;20018;-67
2022/04/24 05:55:43;;;;;;;11.75;8.50;;;;;;;6.20;70.35;99954.84;7401361;19;20023;-67
2022/04/24 05:58:14;;;;;;;9.73;8.40;;;;;;;6.26;70.46;99949.53;7401193;19;20035;-65
2022/04/24 06:00:42;;;;;;;12.93;9.30;;;;;;;6.33;70.15;99952.91;7398113;19;20422;-67
2022/04/24 06:03:10;;;;;;;12.00;9.40;;;;;;;6.39;70.18;99946.72;7398101;19;20018;-67
2022/04/24 06:05:39;;;;;;;14.55;9.27;;;;;;;6.45;70.00;99937.06;7398047;19;20477;-65
2022/04/24 06:08:07;;;;;;;16.15;9.50;;;;;;;6.52;69.96;99945.63;7400908;19;20031;-66
2022/04/24 06:10:36;;;;;;;11.43;9.68;;;;;;;6.59;69.94;99942.03;7400773;19;20014;-67
2022/04/24 06:13:04;;;;;;;13.38;9.80;;;;;;;6.66;69.83;99941.03;7398450;19;20019;-66
2022/04/24 06:15:35;;;;;;;11.88;9.32;;;;;;;6.74;69.59;99934.81;7398133;19;20506;-66
2022/04/24 06:18:03;;;;;;;13.65;9.32;;;;;;;6.81;69.25;99936.41;7398429;19;20014;-66
2022/04/24 06:20:31;;;;;;;12.48;9.75;;;;;;;6.87;69.36;99920.63;7400529;19;20019;-67
2022/04/24 06:23:01;;;;;;;14.05;9.82;;;;;;;6.96;69.19;99925.69;7398012;19;20022;-66
2022/04/24 06:25:31;;;;;;;13.88;10.15;;;;;;;7.05;68.78;99922.03;7398071;19;20031;-65
2022/04/24 06:28:00;;;;;;;13.35;9.48;;;;;;;7.14;68.47;99924.44;7400186;19;20027;-67
2022/04/24 06:30:30;;;;;;;14.48;10.45;;;;;;;7.24;68.35;99926.84;7397735;19;20018;-65
2022/04/24 06:33:01;;;;;;;12.10;9.82;;;;;;;7.30;68.37;99919.78;7397305;19;20026;-66
2022/04/24 06:35:30;;;;;;;14.10;10.55;;;;;;;7.40;68.23;99919.56;7400241;19;20007;-67
2022/04/24 06:37:59;;;;;;;12.50;9.70;;;;;;;7.51;67.78;99917.56;7395985;19;20015;-65
2022/04/24 06:40:28;;;;;;;13.10;9.50;;;;;;;7.60;67.46;99914.75;7396071;19;20090;-66
2022/04/24 06:42:58;;;;;;;13.23;9.85;;;;;;;7.70;67.53;99918.03;7397724;19;20039;-67
2022/04/24 06:45:27;;;;;;;12.88;9.85;;;;;;;7.79;67.20;99922.16;7397120;19;20031;-66
2022/04/24 06:47:57;;;;;;;13.05;10.15;;;;;;;7.90;66.71;99914.94;7399437;19;20027;-67
2022/04/24 06:50:29;;;;;;;15.23;10.85;;;;;;;8.01;66.59;99913.81;7397163;19;20032;-65
2022/04/24 06:52:59;;;;;;;13.85;10.07;;;;;;;8.09;66.25;99899.66;7397607;19;20011;-66
2022/04/24 06:55:27;;;;;;;13.82;10.20;;;;;;;8.21;65.96;99903.72;7396481;19;20489;-67
2022/04/24 06:57:55;;;;;;;15.27;9.98;;;;;;;8.30;65.95;99900.00;7396964;19;20147;-67
2022/04/24 07:00:24;;;;;;;13.40;9.05;;;;;;;8.42;65.53;99898.84;7397061;19;20022;-65
2022/04/24 07:02:53;;;;;;;15.48;9.50;;;;;;;8.51;65.40;99896.00;7396652;19;20019;-66
2022/04/24 07:05:23;;;;;;;11.30;9.18;;;;;;;8.62;65.33;99890.50;7397164;19;20022;-64
2022/04/24 07:07:54;;;;;;;14.10;9.57;;;;;;;8.73;64.86;99892.81;7399055;19;20031;-66
2022/04/24 07:10:22;;;;;;;13.27;9.75;;;;;;;8.83;64.31;99886.41;7397089;19;20075;-66
2022/04/24 07:12:52;;;;;;;12.70;9.82;;;;;;;8.95;64.10;99885.22;7397019;19;20022;-66
2022/04/24 07:15:21;;;;;;;13.85;9.57;;;;;;;9.07;63.96;99891.84;7396797;19;20024;-67
2022/04/24 07:17:51;;;;;;;13.45;9.25;;;;;;;9.16;63.85;99888.09;7398646;19;20019;-67
2022/04/24 07:20:21;;;;;;;13.32;9.45;;;;;;;9.25;63.55;99880.84;7398422;19;20018;-65
2022/04/24 07:22:53;;;;;;;11.05;9.43;;;;;;;9.34;63.46;99876.22;7396830;19;20014;-67
2022/04/24 07:25:23;;;;;;;11.93;10.10;;;;;;;9.44;62.73;99877.69;7396465;19;20035;-68
2022/04/24 07:27:52;;;;;;;12.43;9.98;;;;;;;9.55;62.35;99878.16;7398085;19;20427;-67
2022/04/24 07:30:22;;;;;;;12.23;10.40;;;;;;;9.67;61.69;99879.56;7398072;19;20032;-66
2022/04/24 07:32:52;;;;;;;11.70;9.75;;;;;;;9.76;61.48;99874.03;7395572;19;20363;-65
2022/04/24 07:35:22;;;;;;;11.32;10.00;;;;;;;9.90;61.31;99865.72;7395723;19;20022;-66
2022/04/24 07:37:51;;;;;;;12.07;9.30;;;;;;;10.03;60.76;99862.69;7397332;19;20505;-67
2022/04/24 07:40:23;;;;;;;13.63;9.00;;;;;;;10.13;60.42;99858.00;7397648;19;20030;-67
2022/04/24 07:42:55;;;;;;;11.50;9.25;;;;;;;10.23;60.01;99857.63;7395405;19;20502;-68
2022/04/24 07:45:24;;;;;;;12.77;9.88;;;;;;;10.34;59.65;99859.88;7395546;19;20014;-67
2022/04/24 07:47:54;;;;;;;10.73;9.38;;;;;;;10.44;59.29;99852.59;7397308;19;20042;-66
2022/04/24 07:50:24;;;;;;;12.75;9.07;;;;;;;10.54;59.29;99850.47;7397420;19;20026;-66
2022/04/24 07:52:53;;;;;;;14.23;10.00;;;;;;;10.63;59.08;99847.53;7395070;19;20410;-65
2022/04/24 07:55:25;;;;;;;11.80;9.63;;;;;;;10.73;58.40;99842.81;7397431;19;20014;-65
2022/04/24 07:57:57;;;;;;;10.15;9.02;;;;;;;10.83;58.23;99835.44;7396007;19;20042;-67
2022/04/24 08:00:26;;;;;;;12.23;8.98;;;;;;;10.93;57.88;99831.53;7395394;19;20489;-65
2022/04/24 08:02:57;;;;;;;10.18;8.88;;;;;;;11.05;57.69;99832.88;7395705;19;20031;-66
2022/04/24 08:05:26;;;;;;;13.27;9.27;;;;;;;11.16;57.23;99822.81;7395730;19;20058;-65
2022/04/24 08:07:55;;;;;;;10.30;9.07;;;;;;;11.30;57.07;99834.50;7395140;19;20023;-70
2022/04/24 08:10:28;;;;;;;11.65;8.30;;;;;;;11.40;56.39;99834.09;7396926;19;20015;-69
2022/04/24 08:12:57;;;;;;;10.88;9.23;;;;;;;11.53;56.10;99833.63;7395013;19;20386;-68
2022/04/24 08:15:25;;;;;;;12.25;9.40;;;;;;;11.64;55.75;99833.16;7394632;19;20007;-68
2022/04/24 08:17:54;;;;;;;9.65;8.63;;;;;;;11.72;55.32;99825.84;7394841;19;20039;-70
2022/04/24 08:20:22;;;;;;;10.00;7.93;;;;;;;11.81;55.11;99820.19;7396424;19;20023;-68
2022/04/24 08:22:52;;;;;;;10.25;8.50;;;;;;;11.90;55.04;99835.59;7394721;19;20023;-69
2022/04/24 08:25:25;;;;;;;11.40;8.13;;;;;;;11.98;54.27;99826.56;7395118;19;20011;-68
2022/04/24 08:27:58;;;;;;;9.82;8.82;;;;;;;12.06;54.08;99824.47;7396806;19;20014;-70
2022/04/24 08:30:26;;;;;;;11.32;8.15;;;;;;;12.14;53.77;99821.50;7394246;19;20014;-69
2022/04/24 08:32:55;;;;;;;9.40;7.45;;;;;;;12.24;53.25;99817.56;7394367;19;20018;-69
2022/04/24 08:35:23;;;;;;;8.90;8.00;;;;;;;12.32;53.27;99819.84;7393864;19;20538;-69
2022/04/24 08:37:51;;;;;;;9.07;7.72;;;;;;;12.39;53.30;99821.28;7394601;19;20035;-69
2022/04/24 08:40:24;;;;;;;10.68;7.35;;;;;;;12.49;52.67;99827.84;7395763;19;20015;-69
2022/04/24 08:42:55;;;;;;;9.38;7.53;;;;;;;12.57;52.63;99818.78;7394512;19;20042;-69
2022/04/24 08:45:28;;;;;;;11.38;7.15;;;;;;;12.65;52.03;99816.63;7395153;19;20070;-68
2022/04/24 08:47:57;;;;;;;9.20;6.75;;;;;;;12.73;51.64;99822.41;7394179;19;20023;-66
2022/04/24 08:50:29;;;;;;;7.97;6.97;;;;;;;12.80;50.40;99813.31;7395497;19;20018;-69
2022/04/24 08:52:59;;;;;;;10.88;7.43;;;;;;;12.91;51.14;99818.06;7393399;19;20485;-68
2022/04/24 08:55:28;;;;;;;7.25;6.07;;;;;;;13.00;50.95;99816.78;7393803;19;20011;-68
2022/04/24 08:58:00;;;;;;;9.07;6.13;;;;;;;13.12;50.34;99815.38;7395180;19;20015;-66
2022/04/24 09:00:29;;;;;;;8.73;6.97;;;;;;;13.22;50.01;99811.38;7393859;19;20039;-67
2022/04/24 09:02:58;;;;;;;7.90;7.07;;;;;;;13.33;49.53;99805.59;7391269;19;20018;-66
2022/04/24 09:05:27;;;;;;;8.45;6.93;;;;;;;13.42;49.52;99802.56;7393130;19;20042;-67
2022/04/24 09:07:55;;;;;;;7.50;6.70;;;;;;;13.52;48.40;99808.22;7393173;19;20031;-67
2022/04/24 09:10:23;;;;;;;8.65;7.32;;;;;;;13.61;48.80;99797.22;7394740;19;20377;-67
2022/04/24 09:12:55;;;;;;;6.30;5.70;;;;;;;13.68;47.46;99797.78;7392931;19;20019;-67
2022/04/24 09:15:27;;;;;;;6.68;5.72;;;;;;;13.75;47.80;99800.94;7392341;19;20517;-67
2022/04/24 09:18:02;;;;;;;7.18;6.00;;;;;;;13.83;47.29;99801.44;7393003;19;20015;-67
2022/04/24 09:20:34;;;;;;;9.15;6.13;;;;;;;13.88;47.21;99790.66;7395582;19;20031;-67
2022/04/24 09:23:04;;;;;;;7.55;6.03;;;;;;;13.92;47.15;99789.56;7392856;19;20500;-68
2022/04/24 09:25:42;;;;;;;7.28;5.70;;;;;;;13.94;44.05;99793.81;7393970;19;20019;-67
2022/04/24 09:28:10;;;;;;;8.73;5.85;;;;;;;13.98;46.11;99791.91;7394342;19;20019;-68
2022/04/24 09:30:50;;;;;;;5.93;5.25;;;;;;;13.98;43.96;99790.09;7393231;19;20019;-67
2022/04/24 09:33:19;;;;;;;8.05;5.32;;;;;;;14.06;45.21;99797.63;7392274;19;20019;-66
2022/04/24 09:35:56;;;;;;;6.60;5.78;;;;;;;14.13;44.85;99788.47;7394282;19;20031;-69
2022/04/24 09:38:25;;;;;;;6.80;5.32;;;;;;;14.22;45.08;99787.13;7393024;19;20031;-65
2022/04/24 09:40:53;;;;;;;6.97;5.15;;;;;;;14.31;44.64;99788.44;7394854;19;20014;-65
2022/04/24 09:43:22;;;;;;;5.63;4.95;;;;;;;14.40;44.27;99792.38;7392267;19;20018;-65
2022/04/24 09:45:54;;;;;;;8.43;5.32;;;;;;;14.48;42.63;99788.41;7391951;19;20019;-65
2022/04/24 09:48:25;;;;;;;14.15;7.57;;;;;;;14.60;42.75;99786.88;7394711;19;20021;-65
2022/04/24 09:50:54;;;;;;;7.32;4.75;;;;;;;14.69;42.50;99790.00;7394048;19;20010;-65
2022/04/24 09:53:23;;;;;;;8.35;6.05;;;;;;;14.82;42.07;99785.75;7391703;19;20039;-65
2022/04/24 09:56:02;;;;;;;6.47;4.25;;;;;;;14.95;40.63;99780.63;7391988;19;20031;-65
2022/04/24 09:58:31;;;;;;;8.25;4.93;;;;;;;15.06;41.06;99766.84;7394196;19;20015;-67
2022/04/24 10:01:02;;;;;;;5.05;4.53;;;;;;;15.13;40.21;99784.91;7391756;19;20027;-66
2022/04/24 10:03:31;;;;;;;4.22;3.65;;;;;;;15.21;40.22;99775.69;7392005;19;20019;-65
2022/04/24 10:06:00;;;;;;;4.57;3.95;;;;;;;15.29;39.95;99784.03;7392197;19;20027;-67
2022/04/24 10:08:28;;;;;;;6.47;4.20;;;;;;;15.40;39.88;99786.06;7393323;19;20018;-67
2022/04/24 10:10:57;;;;;;;5.47;4.25;;;;;;;15.52;39.55;99784.50;7393355;19;20018;-67
2022/04/24 10:13:26;;;;;;;4.05;3.63;;;;;;;15.63;38.84;99779.44;7393499;19;20533;-67
2022/04/24 10:16:24;;;;;;;5.88;4.20;;;;;;;15.73;36.92;99780.63;7398160;19;20033;-67
2022/04/24 10:18:57;;;;;;;7.90;4.35;;;;;;;15.83;37.00;99767.72;7398358;19;20023;-68
2022/04/24 10:21:50;;;;;;;6.40;4.53;;;;;;;15.92;36.10;99776.91;7397517;19;20516;-68
2022/04/24 10:24:18;;;;;;;4.53;3.47;;;;;;;15.96;37.44;99786.34;7400878;19;20027;-67
2022/04/24 10:26:55;;;;;;;5.30;4.07;;;;;;;15.97;35.92;99772.19;7398549;19;20035;-68
2022/04/24 10:29:24;;;;;;;5.57;4.57;;;;;;;16.02;37.25;99764.84;7398231;19;20014;-67
2022/04/24 10:31:54;;;;;;;5.63;3.95;;;;;;;16.05;36.19;99759.38;7399423;19;20055;-67
2022/04/24 10:34:23;;;;;;;6.55;3.80;;;;;;;16.08;36.41;99767.13;7400380;19;20018;-67
2022/04/24 10:36:58;;;;;;;4.88;3.38;;;;;;;16.12;35.07;99770.44;7397689;19;20038;-66
2022/04/24 10:39:37;;;;;;;7.25;4.50;;;;;;;16.22;36.49;99768.09;7397322;19;20015;-66
2022/04/24 10:42:12;;;;;;;4.30;3.90;;;;;;;16.30;35.42;99768.44;7398865;19;20041;-66
2022/04/24 10:44:51;;;;;;;4.45;4.05;;;;;;;16.42;35.49;99764.22;7399918;19;20015;-63
2022/04/24 10:47:22;;;;;;;5.00;3.60;;;;;;;16.53;35.55;99753.81;7396891;19;20424;-67
2022/04/24 10:49:50;;;;;;;4.47;3.65;;;;;;;16.63;35.63;99762.03;7397497;19;20029;-67
2022/04/24 10:52:19;;;;;;;4.40;4.00;;;;;;;16.74;35.67;99766.63;7398421;19;20019;-65
2022/04/24 10:54:47;;;;;;;6.82;5.40;;;;;;;16.82;35.22;99745.81;7397093;19;20038;-65
2022/04/24 10:57:19;;;;;;;4.28;3.88;;;;;;;16.94;35.34;99752.16;7399072;19;20478;-68
2022/04/24 10:59:52;;;;;;;4.22;3.83;;;;;;;17.04;35.35;99755.91;7397348;19;20022;-68
2022/04/24 11:02:32;;;;;;;4.60;4.03;;;;;;;17.13;34.26;99759.78;7397902;19;20019;-67
2022/04/24 11:05:03;;;;;;;6.15;3.33;;;;;;;17.22;34.47;99750.38;7397215;19;20022;-64
2022/04/24 11:07:31;;;;;;;4.00;3.60;;;;;;;17.31;34.92;99739.16;7397089;19;20023;-65
2022/04/24 11:10:04;;;;;;;3.78;3.20;;;;;;;17.37;34.60;99740.56;7398630;19;20394;-65
2022/04/24 11:12:33;;;;;;;3.72;2.78;;;;;;;17.44;34.79;99739.22;7397330;19;20050;-65
2022/04/24 11:15:09;;;;;;;5.43;3.80;;;;;;;17.46;33.93;99745.25;7396510;19;20366;-64
2022/04/24 11:17:41;;;;;;;4.10;3.38;;;;;;;17.40;33.49;99733.25;7398474;19;20018;-64
2022/04/24 11:20:13;;;;;;;5.38;3.65;;;;;;;17.40;33.92;99732.41;7396936;19;20056;-65
2022/04/24 11:22:52;;;;;;;4.13;3.15;;;;;;;17.32;33.40;99722.31;7396390;19;20023;-65
2022/04/24 11:25:22;;;;;;;5.32;3.38;;;;;;;17.36;34.03;99728.25;7394114;19;20022;-65
2022/04/24 11:27:56;;;;;;;3.75;3.25;;;;;;;17.39;33.98;99730.72;7395361;19;20390;-67
2022/04/24 11:30:26;;;;;;;4.03;3.17;;;;;;;17.47;34.17;99720.44;7397329;19;20498;-66
2022/04/24 11:33:05;;;;;;;3.92;3.15;;;;;;;17.59;33.65;99708.16;7395641;19;20129;-67
2022/04/24 11:35:35;;;;;;;6.85;3.53;;;;;;;17.75;34.02;99722.09;7395537;19;20023;-68
2022/04/24 11:38:04;;;;;;;3.92;3.53;;;;;;;17.88;33.61;99722.09;7397287;19;20015;-64
2022/04/24 11:40:33;;;;;;;4.82;3.50;;;;;;;17.99;33.33;99716.06;7397054;19;20431;-69
2022/04/24 11:43:05;;;;;;;5.22;3.65;;;;;;;18.07;33.17;99721.72;7395217;19;20010;-68
2022/04/24 11:51:04;;;;;;;5.37;3.50;;;;;;;18.16;31.83;99714.03;7396701;19;20493;-67